Time;durP1;ratioP1;P1;durP2;ratioP2;P2;SDS_P1;SDS_P2;PMS_P1;PMS_P2;Temp;Humidity;BMP_temperature;BMP_pressure;BME280_temperature;BME280_humidity;BME280_pressure;Samples;Min_cycle;Max_cycle;Signal;HPM_P1;HPM_P2
2021/10/19 00:01:20;;;;;;;29.42;14.40;;;;;;;10.47;61.47;101708.24;1696633;82;21673;-62
2021/10/19 00:03:47;;;;;;;26.57;14.40;;;;;;;10.48;61.52;101710.01;1692754;82;21633;-56
2021/10/19 00:06:14;;;;;;;24.27;13.85;;;;;;;10.45;61.49;101711.41;1690477;82;21115;-63
2021/10/19 00:08:41;;;;;;;26.48;14.15;;;;;;;10.41;61.54;101705.69;1696216;82;21097;-64
2021/10/19 00:11:10;;;;;;;29.10;13.88;;;;;;;10.38;61.75;101707.92;1701500;82;21623;-63
2021/10/19 00:13:37;;;;;;;29.70;14.10;;;;;;;10.35;61.94;101705.30;1695703;82;21398;-64
2021/10/19 00:16:05;;;;;;;23.18;14.10;;;;;;;10.32;62.00;101710.29;1690372;82;21104;-56
2021/10/19 00:18:32;;;;;;;27.93;14.75;;;;;;;10.29;62.23;101716.16;1695732;82;21064;-57
2021/10/19 00:20:59;;;;;;;30.25;14.68;;;;;;;10.29;62.21;101718.83;1702404;82;21775;-63
2021/10/19 00:23:27;;;;;;;27.95;14.75;;;;;;;10.26;62.33;101716.22;1698368;82;22156;-63
2021/10/19 00:25:55;;;;;;;28.23;14.00;;;;;;;10.23;62.42;101715.80;1682472;82;21103;-62
2021/10/19 00:28:22;;;;;;;27.02;14.63;;;;;;;10.20;62.51;101717.20;1704996;82;21092;-55
2021/10/19 00:30:49;;;;;;;32.80;15.35;;;;;;;10.21;62.62;101724.33;1717927;82;21006;-63
2021/10/19 00:33:16;;;;;;;32.28;15.18;;;;;;;10.19;62.65;101727.49;1694650;82;21092;-62
2021/10/19 00:35:43;;;;;;;30.10;14.78;;;;;;;10.18;62.80;101727.06;1707051;82;21479;-55
2021/10/19 00:38:10;;;;;;;29.12;15.80;;;;;;;10.15;62.83;101727.98;1698869;82;21096;-56
2021/10/19 00:40:37;;;;;;;29.25;15.50;;;;;;;10.12;62.86;101729.39;1698225;82;21116;-56
2021/10/19 00:43:05;;;;;;;30.25;15.00;;;;;;;10.10;62.92;101724.98;1693917;82;21613;-56
2021/10/19 00:45:34;;;;;;;32.95;15.23;;;;;;;10.08;63.04;101720.11;1684212;82;21104;-56
2021/10/19 00:48:04;;;;;;;37.10;15.25;;;;;;;10.11;63.00;101726.28;1701482;82;21080;-55
2021/10/19 00:50:32;;;;;;;45.23;15.90;;;;;;;10.12;62.97;101720.48;1701846;82;21028;-55
2021/10/19 00:52:59;;;;;;;48.30;16.07;;;;;;;10.13;62.98;101724.93;1707994;82;21056;-55
2021/10/19 00:55:26;;;;;;;41.75;15.60;;;;;;;10.11;63.01;101732.11;1699937;82;21647;-63
2021/10/19 00:57:53;;;;;;;42.48;17.25;;;;;;;10.10;63.16;101731.69;1698127;82;21072;-62
2021/10/19 01:00:20;;;;;;;41.85;16.75;;;;;;;10.11;63.18;101722.27;1699481;82;21100;-55
2021/10/19 01:02:47;;;;;;;36.23;15.68;;;;;;;10.11;63.25;101728.96;1697242;82;21144;-55
2021/10/19 01:05:14;;;;;;;38.63;16.77;;;;;;;10.11;63.29;101732.11;1707050;82;21375;-55
2021/10/19 01:07:43;;;;;;;49.77;16.82;;;;;;;10.09;63.41;101728.58;1708592;82;21060;-55
2021/10/19 01:10:10;;;;;;;39.27;15.28;;;;;;;10.07;63.49;101727.72;1708021;82;21086;-56
2021/10/19 01:12:39;;;;;;;63.20;17.00;;;;;;;10.02;63.56;101728.66;1697512;82;21126;-61
2021/10/19 01:15:11;;;;;;;43.80;16.48;;;;;;;9.98;63.78;101734.98;1698018;82;21144;-62
2021/10/19 01:17:50;;;;;;;50.63;17.87;;;;;;;9.96;63.89;101723.42;1686452;83;21130;-56
2021/10/19 01:20:27;;;;;;;45.12;16.97;;;;;;;9.95;64.10;101721.65;1696594;83;21072;-62
2021/10/19 01:22:56;;;;;;;51.95;16.40;;;;;;;9.96;64.19;101722.08;1683929;83;21090;-62
2021/10/19 01:25:26;;;;;;;47.05;17.90;;;;;;;9.97;64.20;101727.86;1688274;83;21073;-61
2021/10/19 01:27:59;;;;;;;44.58;17.87;;;;;;;9.96;64.21;101734.13;1690291;83;20942;-62
2021/10/19 01:30:26;;;;;;;42.73;17.05;;;;;;;9.93;64.20;101739.55;1695356;83;21113;-62
2021/10/19 01:32:53;;;;;;;47.10;18.85;;;;;;;9.88;64.31;101728.03;1672478;83;21546;-63
2021/10/19 01:35:38;;;;;;;42.65;17.30;;;;;;;9.81;64.46;101722.32;1694098;83;21118;-62
2021/10/19 01:38:07;;;;;;;41.95;17.48;;;;;;;9.74;64.72;101733.14;1692986;83;21062;-62
2021/10/19 01:40:35;;;;;;;41.80;17.05;;;;;;;9.69;65.02;101727.42;1691868;83;21080;-62
2021/10/19 01:43:01;;;;;;;47.98;17.15;;;;;;;9.64;65.17;101723.50;1693685;83;21591;-62
2021/10/19 01:45:30;;;;;;;38.50;16.15;;;;;;;9.61;65.39;101732.89;1693909;83;21487;-62
2021/10/19 01:47:57;;;;;;;34.85;16.85;;;;;;;9.59;65.53;101729.35;1696379;82;21173;-62
2021/10/19 01:50:24;;;;;;;44.23;17.05;;;;;;;9.55;65.70;101733.89;1698044;83;21211;-63
2021/10/19 01:52:51;;;;;;;49.42;16.87;;;;;;;9.52;65.83;101733.94;1689259;83;21600;-63
2021/10/19 01:55:18;;;;;;;48.50;17.40;;;;;;;9.51;65.96;101730.84;1685138;83;21108;-55
2021/10/19 01:57:45;;;;;;;67.22;17.62;;;;;;;9.51;66.05;101739.30;1694832;83;21069;-55
2021/10/19 02:00:13;;;;;;;64.45;18.17;;;;;;;9.49;66.16;101738.44;1694154;83;21121;-57
2021/10/19 02:02:40;;;;;;;48.70;16.23;;;;;;;9.46;66.34;101732.23;1686130;82;21075;-55
2021/10/19 02:05:11;;;;;;;50.85;17.17;;;;;;;9.49;66.44;101732.62;1688362;83;21648;-63
2021/10/19 02:07:38;;;;;;;39.00;16.95;;;;;;;9.53;66.42;101730.79;1714991;82;21478;-56
2021/10/19 02:10:07;;;;;;;38.17;16.30;;;;;;;9.55;66.39;101742.36;1692123;83;21168;-55
2021/10/19 02:12:34;;;;;;;32.90;15.72;;;;;;;9.54;66.39;101744.61;1686697;83;21585;-62
2021/10/19 02:15:02;;;;;;;40.92;17.02;;;;;;;9.52;66.47;101751.34;1694909;83;21096;-55
2021/10/19 02:17:29;;;;;;;53.42;16.30;;;;;;;9.45;66.52;101742.95;1704012;83;21539;-57
2021/10/19 02:19:57;;;;;;;43.00;16.70;;;;;;;9.38;66.79;101751.51;1693827;83;21529;-55
2021/10/19 02:22:24;;;;;;;50.35;16.65;;;;;;;9.31;67.01;101747.16;1692223;83;21126;-55
2021/10/19 02:24:52;;;;;;;53.15;16.52;;;;;;;9.26;67.32;101736.98;1685297;83;21376;-54
2021/10/19 02:27:18;;;;;;;53.30;15.95;;;;;;;9.26;67.58;101742.33;1695428;83;21143;-62
2021/10/19 02:29:45;;;;;;;43.78;16.45;;;;;;;9.25;67.66;101745.91;1690240;83;21870;-55
2021/10/19 02:32:12;;;;;;;39.25;16.20;;;;;;;9.25;67.83;101754.81;1693041;83;21072;-55
2021/10/19 02:34:41;;;;;;;53.45;18.73;;;;;;;9.23;67.84;101758.44;1703877;83;21022;-63
2021/10/19 02:37:08;;;;;;;41.90;15.50;;;;;;;9.19;67.97;101766.08;1696622;83;21703;-63
2021/10/19 02:39:35;;;;;;;44.33;16.40;;;;;;;9.13;68.15;101763.88;1692498;83;21096;-55
2021/10/19 02:42:02;;;;;;;51.83;17.67;;;;;;;9.06;68.37;101762.20;1692757;83;21808;-62
2021/10/19 02:44:29;;;;;;;50.03;17.75;;;;;;;9.02;68.62;101765.83;1695421;83;22344;-62
2021/10/19 02:46:56;;;;;;;41.25;16.17;;;;;;;8.98;68.79;101770.78;1686579;83;21323;-63
2021/10/19 02:49:23;;;;;;;36.83;16.77;;;;;;;8.92;69.06;101778.86;1697289;83;21529;-63
2021/10/19 02:51:51;;;;;;;44.77;15.35;;;;;;;8.84;69.34;101788.30;1689753;83;21470;-56
2021/10/19 02:54:18;;;;;;;32.58;14.80;;;;;;;8.78;69.73;101793.29;1700947;83;21142;-55
2021/10/19 02:56:47;;;;;;;34.20;15.58;;;;;;;8.70;69.89;101796.47;1694660;83;38465;-55
2021/10/19 02:59:13;;;;;;;40.03;16.77;;;;;;;8.62;70.22;101805.03;1677405;83;21069;-56
2021/10/19 03:01:40;;;;;;;41.02;15.50;;;;;;;8.57;70.47;101799.30;1701546;83;21018;-55
2021/10/19 03:04:07;;;;;;;40.52;16.52;;;;;;;8.49;70.85;101805.11;1684646;83;21094;-62
2021/10/19 03:06:35;;;;;;;36.03;15.63;;;;;;;8.41;71.10;101802.97;1677997;84;21141;-61
2021/10/19 03:09:01;;;;;;;34.70;16.10;;;;;;;8.33;71.39;101804.84;1670648;84;22294;-62
2021/10/19 03:11:29;;;;;;;44.75;16.05;;;;;;;8.27;71.72;101803.96;1676190;83;21071;-55
2021/10/19 03:13:56;;;;;;;34.48;16.00;;;;;;;8.22;72.03;101805.80;1679415;83;21123;-54
2021/10/19 03:16:23;;;;;;;40.20;17.55;;;;;;;8.19;72.32;101816.52;1670235;83;21616;-56
2021/10/19 03:18:50;;;;;;;38.45;16.80;;;;;;;8.15;72.52;101810.76;1684430;83;21177;-61
2021/10/19 03:21:17;;;;;;;46.45;17.23;;;;;;;8.11;72.72;101811.69;1678222;83;21271;-56
2021/10/19 03:23:46;;;;;;;37.60;15.93;;;;;;;8.10;72.87;101821.94;1685842;83;21146;-55
2021/10/19 03:26:16;;;;;;;37.93;16.75;;;;;;;8.08;73.06;101815.72;1694915;83;21073;-56
2021/10/19 03:28:46;;;;;;;39.03;16.73;;;;;;;8.05;73.27;101821.06;1678810;83;21072;-56
2021/10/19 03:31:13;;;;;;;40.15;17.17;;;;;;;8.00;73.44;101816.64;1680345;83;21094;-55
2021/10/19 03:33:40;;;;;;;48.15;17.98;;;;;;;7.97;73.73;101823.34;1692163;83;21124;-63
2021/10/19 03:36:09;;;;;;;39.95;15.60;;;;;;;7.93;73.83;101818.93;1674692;83;21082;-55
2021/10/19 03:38:37;;;;;;;45.65;16.67;;;;;;;7.88;74.06;101816.74;1678623;83;21089;-56
2021/10/19 03:41:05;;;;;;;38.30;17.53;;;;;;;7.84;74.26;101818.97;1681270;83;21136;-57
2021/10/19 03:43:31;;;;;;;48.85;17.82;;;;;;;7.81;74.43;101823.00;1674672;83;21072;-62
2021/10/19 03:45:58;;;;;;;38.42;16.50;;;;;;;7.80;74.51;101822.12;1680144;83;21660;-63
2021/10/19 03:48:26;;;;;;;36.08;16.82;;;;;;;7.80;74.63;101818.56;1689225;83;21663;-63
2021/10/19 03:50:53;;;;;;;43.95;17.25;;;;;;;7.79;74.71;101816.78;1672416;83;21068;-64
2021/10/19 03:53:20;;;;;;;40.30;15.95;;;;;;;7.81;74.77;101811.89;1679880;83;21144;-55
2021/10/19 03:55:48;;;;;;;42.43;17.30;;;;;;;7.83;74.82;101814.53;1674213;84;21625;-62
2021/10/19 03:58:15;;;;;;;49.25;18.48;;;;;;;7.83;74.82;101807.86;1649298;85;21139;-62
2021/10/19 04:00:42;;;;;;;49.73;17.98;;;;;;;7.80;74.88;101818.56;1674007;83;21069;-62
2021/10/19 04:03:09;;;;;;;59.08;17.23;;;;;;;7.78;74.95;101815.92;1660464;84;21265;-55
2021/10/19 04:05:36;;;;;;;62.55;18.90;;;;;;;7.79;75.11;101820.36;1670228;84;21007;-63
2021/10/19 04:08:04;;;;;;;49.18;17.57;;;;;;;7.80;75.12;101819.89;1685215;83;22130;-62
2021/10/19 04:10:32;;;;;;;58.02;17.92;;;;;;;7.77;75.18;101821.25;1689341;83;21107;-64
2021/10/19 04:12:58;;;;;;;57.23;19.23;;;;;;;7.73;75.35;101821.27;1688917;83;21145;-62
2021/10/19 04:15:26;;;;;;;59.35;17.45;;;;;;;7.67;75.46;101826.66;1688135;83;21089;-63
2021/10/19 04:17:53;;;;;;;55.92;18.75;;;;;;;7.65;75.59;101821.78;1678378;83;21108;-62
2021/10/19 04:20:20;;;;;;;62.00;18.92;;;;;;;7.60;75.77;101823.56;1655836;84;21172;-63
2021/10/19 04:22:47;;;;;;;68.10;18.87;;;;;;;7.57;76.04;101826.25;1679521;83;21156;-62
2021/10/19 04:25:14;;;;;;;64.42;17.70;;;;;;;7.57;76.14;101824.91;1676979;83;21095;-62
2021/10/19 04:27:41;;;;;;;68.75;20.82;;;;;;;7.55;76.32;101834.72;1678618;83;21027;-63
2021/10/19 04:30:09;;;;;;;67.70;19.00;;;;;;;7.54;76.40;101832.94;1679100;83;21157;-63
2021/10/19 04:32:37;;;;;;;66.82;20.20;;;;;;;7.55;76.53;101829.38;1683087;83;21116;-63
2021/10/19 04:35:05;;;;;;;60.12;18.30;;;;;;;7.58;76.60;101837.36;1679792;82;22488;-56
2021/10/19 04:37:32;;;;;;;76.57;20.02;;;;;;;7.62;76.66;101822.23;1678087;83;21104;-63
2021/10/19 04:40:00;;;;;;;72.80;19.70;;;;;;;7.66;76.71;101819.98;1685311;83;21094;-64
2021/10/19 04:42:29;;;;;;;85.35;19.92;;;;;;;7.74;76.65;101828.39;1679586;83;21391;-63
2021/10/19 04:44:56;;;;;;;67.12;18.80;;;;;;;7.84;76.58;101825.64;1678897;83;21133;-55
2021/10/19 04:47:24;;;;;;;71.67;19.65;;;;;;;7.94;76.46;101831.38;1679495;83;21105;-56
2021/10/19 04:49:51;;;;;;;70.47;18.77;;;;;;;8.08;76.33;101829.08;1680702;82;21089;-56
2021/10/19 04:52:18;;;;;;;59.23;17.73;;;;;;;8.33;76.18;101829.75;1691523;83;21072;-62
2021/10/19 04:54:45;;;;;;;57.58;18.50;;;;;;;8.69;75.70;101842.83;1689048;83;21060;-63
2021/10/19 04:57:12;;;;;;;56.37;17.75;;;;;;;8.94;74.58;101845.25;1674483;83;21871;-62
2021/10/19 04:59:39;;;;;;;51.20;17.90;;;;;;;9.08;73.73;101850.48;1673143;84;21042;-62
2021/10/19 05:02:06;;;;;;;54.20;17.90;;;;;;;9.19;73.25;101857.05;1672902;83;21063;-63
2021/10/19 05:04:33;;;;;;;49.63;16.50;;;;;;;9.26;72.73;101856.06;1664456;83;21109;-56
2021/10/19 05:07:00;;;;;;;45.15;17.25;;;;;;;9.35;72.42;101857.28;1659248;84;21086;-56
2021/10/19 05:09:27;;;;;;;56.90;18.70;;;;;;;9.45;72.06;101852.27;1662579;84;21144;-62
2021/10/19 05:11:55;;;;;;;55.90;18.12;;;;;;;9.56;71.68;101856.14;1658658;84;21451;-64
2021/10/19 05:14:24;;;;;;;45.10;15.68;;;;;;;9.70;71.25;101859.97;1663480;84;21075;-67
2021/10/19 05:16:52;;;;;;;54.95;16.75;;;;;;;9.86;70.85;101861.98;1660429;84;21584;-56
2021/10/19 05:19:19;;;;;;;46.95;16.55;;;;;;;10.01;70.25;101862.20;1659414;83;21406;-61
2021/10/19 05:21:47;;;;;;;54.95;18.50;;;;;;;10.15;69.61;101871.38;1652240;85;21192;-62
2021/10/19 05:24:14;;;;;;;47.03;17.57;;;;;;;10.26;69.20;101871.20;1650926;85;21545;-58
2021/10/19 05:26:41;;;;;;;53.05;17.32;;;;;;;10.36;68.75;101881.80;1651869;85;21079;-55
2021/10/19 05:29:08;;;;;;;54.85;19.67;;;;;;;10.45;68.20;101892.39;1651412;85;21133;-56
2021/10/19 05:31:36;;;;;;;58.17;18.27;;;;;;;10.44;67.82;101900.91;1675522;84;21148;-64
2021/10/19 05:34:03;;;;;;;56.10;17.77;;;;;;;10.37;67.82;101894.30;1668644;84;21843;-62
2021/10/19 05:36:30;;;;;;;52.65;17.02;;;;;;;10.31;68.05;101898.84;1661219;84;21134;-57
2021/10/19 05:38:57;;;;;;;50.98;17.65;;;;;;;10.29;68.17;101895.31;1679730;84;21064;-56
2021/10/19 05:41:24;;;;;;;39.50;16.35;;;;;;;10.24;68.17;101909.69;1659399;83;21178;-55
2021/10/19 05:43:51;;;;;;;36.50;16.82;;;;;;;10.18;68.32;101906.63;1665407;83;21147;-64
2021/10/19 05:46:18;;;;;;;35.90;15.88;;;;;;;10.13;68.57;101914.73;1637383;85;21825;-56
2021/10/19 05:48:45;;;;;;;32.58;15.03;;;;;;;10.13;68.81;101919.22;1633791;86;21081;-56
2021/10/19 05:51:12;;;;;;;31.30;16.45;;;;;;;10.16;68.83;101931.23;1662526;84;21082;-57
2021/10/19 05:53:39;;;;;;;34.03;17.20;;;;;;;10.11;68.98;101929.95;1666634;84;21061;-63
2021/10/19 05:58:48;;;;;;;31.30;15.95;;;;;;;10.16;69.50;101945.50;1789827;77;28490;-57
2021/10/19 06:01:17;;;;;;;30.52;15.80;;;;;;;10.16;69.65;101949.52;1748890;79;21390;-63
2021/10/19 06:03:44;;;;;;;30.68;16.40;;;;;;;10.22;69.64;101944.53;1752307;79;21122;-63
2021/10/19 06:06:12;;;;;;;27.55;14.75;;;;;;;10.26;69.65;101952.95;1751807;79;21012;-63
2021/10/19 06:08:39;;;;;;;34.95;15.00;;;;;;;10.31;69.76;101944.42;1754162;79;21544;-56
2021/10/19 06:11:07;;;;;;;32.35;16.45;;;;;;;10.40;69.82;101944.77;1754028;79;20969;-57
2021/10/19 06:13:35;;;;;;;38.55;16.73;;;;;;;10.47;69.63;101952.24;1750904;79;21531;-58
2021/10/19 06:16:05;;;;;;;32.23;16.07;;;;;;;10.54;69.76;101957.97;1752982;79;21523;-57
2021/10/19 06:18:36;;;;;;;30.25;16.85;;;;;;;10.67;69.67;101959.09;1732397;80;20972;-56
2021/10/19 06:21:03;;;;;;;28.42;15.65;;;;;;;10.73;69.36;101956.34;1752950;79;21145;-56
2021/10/19 06:23:31;;;;;;;32.80;16.05;;;;;;;10.77;69.19;101960.73;1751256;79;21376;-56
2021/10/19 06:26:00;;;;;;;26.97;15.28;;;;;;;10.84;69.13;101966.42;1749069;79;21621;-63
2021/10/19 06:28:28;;;;;;;30.15;15.05;;;;;;;10.91;69.20;101955.13;1752113;79;21120;-63
2021/10/19 06:30:59;;;;;;;27.55;14.50;;;;;;;11.04;68.79;101961.17;1749499;79;21545;-63
2021/10/19 06:33:43;;;;;;;25.68;14.73;;;;;;;11.12;68.46;101963.25;1753564;79;21206;-62
2021/10/19 06:36:13;;;;;;;30.15;15.65;;;;;;;11.20;68.38;101965.80;1731707;79;21671;-63
2021/10/19 06:38:42;;;;;;;31.97;15.08;;;;;;;11.33;68.07;101954.38;1750360;79;21135;-62
2021/10/19 06:41:09;;;;;;;26.45;14.58;;;;;;;11.39;67.78;101955.63;1751836;79;21209;-63
2021/10/19 06:43:36;;;;;;;26.52;14.28;;;;;;;11.47;67.72;101954.11;1757517;79;21557;-55
2021/10/19 06:46:04;;;;;;;34.53;15.13;;;;;;;11.56;67.43;101955.73;1750325;79;21115;-56
2021/10/19 06:48:32;;;;;;;28.23;14.65;;;;;;;11.59;67.29;101961.94;1752320;79;21099;-58
2021/10/19 06:50:59;;;;;;;26.73;13.55;;;;;;;11.61;67.47;101969.50;1753929;79;21118;-64
2021/10/19 06:53:26;;;;;;;25.20;14.33;;;;;;;11.69;67.46;101976.06;1752228;80;21663;-57
2021/10/19 06:55:54;;;;;;;29.65;14.87;;;;;;;11.80;67.41;101972.27;1749643;80;21465;-57
2021/10/19 06:58:21;;;;;;;30.68;14.15;;;;;;;11.90;67.38;101961.77;1742879;80;21080;-56
2021/10/19 07:00:51;;;;;;;27.20;13.98;;;;;;;11.99;66.70;101965.59;1744287;80;21187;-55
2021/10/19 07:03:17;;;;;;;26.73;15.08;;;;;;;12.02;66.36;101968.23;1737873;80;21043;-57
2021/10/19 07:05:45;;;;;;;28.85;14.73;;;;;;;12.03;66.43;101975.38;1736300;80;21217;-56
2021/10/19 07:08:12;;;;;;;28.45;15.00;;;;;;;12.04;66.22;101966.40;1738532;80;21596;-59
2021/10/19 07:10:40;;;;;;;30.70;14.30;;;;;;;12.11;66.16;101971.66;1736794;80;21376;-57
2021/10/19 07:13:10;;;;;;;34.33;15.25;;;;;;;12.13;65.90;101969.83;1736978;80;21047;-58
2021/10/19 07:15:39;;;;;;;26.48;14.95;;;;;;;12.07;65.95;101964.59;1730517;80;21454;-64
2021/10/19 07:18:08;;;;;;;29.15;15.03;;;;;;;12.04;66.00;101963.71;1729203;80;21158;-57
2021/10/19 07:20:37;;;;;;;26.45;15.03;;;;;;;12.08;66.11;101965.89;1736053;80;21688;-58
2021/10/19 07:23:05;;;;;;;29.95;14.10;;;;;;;12.13;65.86;101968.48;1729927;80;21084;-57
2021/10/19 07:25:32;;;;;;;28.20;15.58;;;;;;;12.14;66.00;101959.50;1735043;80;21136;-56
2021/10/19 07:28:00;;;;;;;31.30;16.20;;;;;;;12.17;65.96;101975.11;1738856;80;21535;-64
2021/10/19 07:30:28;;;;;;;34.33;16.70;;;;;;;12.20;65.65;101968.76;1741475;80;21640;-64
2021/10/19 07:32:55;;;;;;;26.97;15.18;;;;;;;12.24;65.76;101967.77;1737852;80;21506;-63
2021/10/19 07:35:23;;;;;;;29.23;15.58;;;;;;;12.29;65.35;101971.26;1736220;80;21073;-64
2021/10/19 07:37:52;;;;;;;27.00;14.65;;;;;;;12.29;65.37;101980.67;1739025;80;21130;-64
2021/10/19 07:40:22;;;;;;;25.77;15.13;;;;;;;12.34;65.12;101970.27;1733100;80;21257;-65
2021/10/19 07:42:49;;;;;;;25.95;15.00;;;;;;;12.37;65.15;101983.64;1733155;80;22329;-62
2021/10/19 07:45:17;;;;;;;23.20;13.40;;;;;;;12.37;64.94;101974.22;1730079;80;21512;-63
2021/10/19 07:47:46;;;;;;;34.90;14.05;;;;;;;12.37;64.78;101971.06;1737506;80;21542;-64
2021/10/19 07:50:16;;;;;;;27.32;14.38;;;;;;;12.36;64.93;101971.11;1737353;80;20988;-64
2021/10/19 07:52:43;;;;;;;22.70;13.38;;;;;;;12.37;64.93;101975.09;1735738;80;21029;-56
2021/10/19 07:55:10;;;;;;;28.83;13.78;;;;;;;12.36;64.82;101976.49;1736866;79;21822;-62
2021/10/19 07:57:49;;;;;;;31.87;13.68;;;;;;;12.40;64.98;101970.11;1749094;79;21525;-56
2021/10/19 08:00:21;;;;;;;22.98;13.48;;;;;;;12.45;64.97;101978.95;1752051;79;21048;-61
2021/10/19 08:02:48;;;;;;;28.42;15.63;;;;;;;12.54;64.86;101970.69;1749548;79;21068;-63
2021/10/19 08:05:15;;;;;;;26.75;13.93;;;;;;;12.61;64.42;101973.64;1743059;79;21055;-57
2021/10/19 08:07:44;;;;;;;24.20;13.85;;;;;;;12.68;64.34;101982.45;1760526;79;21558;-56
2021/10/19 08:10:20;;;;;;;28.57;13.10;;;;;;;12.73;63.93;101969.77;1752362;79;20995;-64
2021/10/19 08:12:49;;;;;;;24.82;13.85;;;;;;;12.77;63.97;101975.97;1754071;79;21446;-62
2021/10/19 08:15:17;;;;;;;24.15;13.83;;;;;;;12.81;63.51;101979.00;1759714;79;21055;-62
2021/10/19 08:17:46;;;;;;;21.80;13.60;;;;;;;12.80;63.30;101979.92;1746147;79;21039;-63
2021/10/19 08:20:14;;;;;;;22.93;12.33;;;;;;;12.82;63.22;101976.73;1752693;79;22227;-63
2021/10/19 08:22:42;;;;;;;26.85;12.65;;;;;;;12.86;63.38;101969.00;1745074;79;21095;-64
2021/10/19 08:25:10;;;;;;;23.75;12.78;;;;;;;12.96;63.37;101987.62;1750932;79;21078;-64
2021/10/19 08:27:40;;;;;;;28.32;13.90;;;;;;;12.94;62.81;101982.27;1752192;79;21153;-64
2021/10/19 08:30:07;;;;;;;21.10;12.73;;;;;;;12.89;63.13;101985.06;1750291;79;21041;-64
2021/10/19 08:32:36;;;;;;;22.50;11.93;;;;;;;12.94;63.04;101985.44;1746642;79;21553;-65
2021/10/19 08:35:05;;;;;;;24.00;14.18;;;;;;;12.98;62.83;101996.06;1758248;79;21051;-57
2021/10/19 08:37:33;;;;;;;31.93;14.35;;;;;;;12.98;62.78;101992.03;1756973;79;20968;-63
2021/10/19 08:40:00;;;;;;;27.37;14.28;;;;;;;12.96;62.58;101980.90;1747208;79;21079;-64
2021/10/19 08:42:29;;;;;;;23.00;12.23;;;;;;;13.00;62.69;101993.35;1753087;79;21366;-64
2021/10/19 08:44:56;;;;;;;24.02;13.72;;;;;;;13.07;62.39;101998.99;1752236;79;21502;-57
2021/10/19 08:47:24;;;;;;;22.15;13.28;;;;;;;13.11;62.21;101997.98;1750166;79;21080;-64
2021/10/19 08:49:53;;;;;;;20.43;12.13;;;;;;;13.18;61.88;101984.80;1754944;79;21024;-65
2021/10/19 08:52:20;;;;;;;23.30;12.73;;;;;;;13.31;61.96;101988.50;1751266;79;21059;-64
2021/10/19 08:54:47;;;;;;;28.62;12.43;;;;;;;13.46;61.44;101984.09;1746670;79;21400;-66
2021/10/19 08:57:15;;;;;;;24.15;13.20;;;;;;;13.62;60.65;101993.11;1751065;79;21910;-63
2021/10/19 08:59:46;;;;;;;23.52;12.73;;;;;;;13.65;60.11;101987.62;1764812;79;20964;-63
2021/10/19 09:02:14;;;;;;;19.42;11.68;;;;;;;13.68;60.43;101992.92;1770284;78;21092;-64
2021/10/19 09:04:43;;;;;;;28.62;15.50;;;;;;;13.80;60.17;101988.09;1763058;79;21551;-64
2021/10/19 09:07:11;;;;;;;32.53;13.88;;;;;;;13.85;60.09;101984.34;1770659;79;21076;-65
2021/10/19 09:09:38;;;;;;;20.55;12.47;;;;;;;13.90;60.08;101979.69;1768661;79;21114;-65
2021/10/19 09:12:08;;;;;;;29.12;13.95;;;;;;;13.93;59.43;101986.82;1765883;79;21646;-66
2021/10/19 09:14:38;;;;;;;27.70;12.70;;;;;;;13.90;59.22;101986.91;1739745;79;21131;-64
2021/10/19 09:17:05;;;;;;;24.60;12.40;;;;;;;13.87;59.17;101979.78;1769382;79;20957;-65
2021/10/19 09:19:34;;;;;;;22.85;12.30;;;;;;;13.79;59.17;101987.23;1765209;79;21160;-64
2021/10/19 09:22:07;;;;;;;20.68;11.93;;;;;;;13.72;59.35;101985.16;1760449;79;21177;-65
2021/10/19 09:24:42;;;;;;;18.50;11.33;;;;;;;13.61;59.28;101976.52;1767674;79;21069;-64
2021/10/19 09:27:15;;;;;;;23.47;12.75;;;;;;;13.48;59.33;101973.73;1770982;79;22523;-64
2021/10/19 09:29:48;;;;;;;22.25;12.18;;;;;;;13.39;59.86;101981.56;1769902;79;21051;-64
2021/10/19 09:32:16;;;;;;;21.37;12.00;;;;;;;13.38;59.63;101979.35;1773729;79;21560;-64
2021/10/19 09:34:45;;;;;;;22.35;11.28;;;;;;;13.41;59.64;101967.14;1714973;82;21943;-64
2021/10/19 09:37:18;;;;;;;22.45;11.35;;;;;;;13.41;59.05;101987.34;1740040;80;21048;-64
2021/10/19 09:39:50;;;;;;;25.08;12.25;;;;;;;13.39;59.64;101967.66;1762475;79;21056;-64
2021/10/19 09:42:26;;;;;;;21.68;11.18;;;;;;;13.42;59.35;101962.17;1761841;79;21051;-65
2021/10/19 09:44:58;;;;;;;20.80;11.70;;;;;;;13.50;59.22;101961.09;1762256;79;21623;-56
2021/10/19 09:47:36;;;;;;;21.93;11.40;;;;;;;13.64;59.27;101964.30;1767513;79;21665;-58
2021/10/19 09:50:00;;;;;;;22.98;11.55;;;;;;;13.81;58.96;101966.50;1763159;79;21527;-57
2021/10/19 09:52:27;;;;;;;20.92;11.48;;;;;;;14.00;57.88;101961.91;1770707;79;21067;-58
2021/10/19 09:54:54;;;;;;;16.15;10.20;;;;;;;14.12;57.36;101968.75;1740706;78;21513;-62
2021/10/19 09:57:22;;;;;;;19.50;10.95;;;;;;;14.15;57.14;101956.52;1771166;79;21102;-64
2021/10/19 09:59:49;;;;;;;21.42;10.43;;;;;;;14.22;57.08;101954.03;1752147;79;21094;-63
2021/10/19 10:02:17;;;;;;;16.37;9.43;;;;;;;14.34;56.55;101950.06;1755713;79;21040;-63
2021/10/19 10:04:45;;;;;;;21.80;10.55;;;;;;;14.41;55.58;101952.11;1756242;79;21449;-63
2021/10/19 10:07:14;;;;;;;18.07;9.93;;;;;;;14.42;55.88;101948.47;1728102;79;21323;-56
2021/10/19 10:09:42;;;;;;;21.10;9.83;;;;;;;14.47;55.27;101943.80;1721775;80;21007;-58
2021/10/19 10:12:10;;;;;;;20.48;12.28;;;;;;;14.51;55.64;101955.39;1689843;82;22523;-63
2021/10/19 10:14:45;;;;;;;24.15;9.68;;;;;;;14.58;56.02;101944.35;1726480;81;21137;-57
2021/10/19 10:17:14;;;;;;;14.60;8.98;;;;;;;14.66;55.24;101951.30;1722363;81;20989;-56
2021/10/19 10:19:43;;;;;;;13.62;8.70;;;;;;;14.69;54.62;101946.70;1721349;81;21116;-57
2021/10/19 10:22:28;;;;;;;15.72;9.33;;;;;;;14.75;54.82;101948.34;1726951;81;21084;-57
2021/10/19 10:25:08;;;;;;;17.02;9.83;;;;;;;14.83;54.45;101950.80;1728843;81;22006;-56
2021/10/19 10:27:36;;;;;;;17.45;9.95;;;;;;;14.85;54.42;101947.09;1728285;81;21033;-57
2021/10/19 10:30:04;;;;;;;16.00;9.10;;;;;;;14.88;54.06;101946.11;1722335;81;21068;-64
2021/10/19 10:32:37;;;;;;;15.58;7.62;;;;;;;14.87;53.02;101955.16;1729383;80;21096;-63
2021/10/19 10:35:09;;;;;;;18.12;7.25;;;;;;;14.66;51.11;101960.75;1728209;81;21140;-63
2021/10/19 10:37:50;;;;;;;16.82;7.67;;;;;;;14.43;51.65;101953.84;1731641;80;21103;-63
2021/10/19 10:40:33;;;;;;;12.55;8.33;;;;;;;14.28;52.42;101948.47;1726351;80;21102;-63
2021/10/19 10:43:17;;;;;;;14.93;6.97;;;;;;;14.18;53.03;101949.67;1733216;80;21092;-63
2021/10/19 10:45:44;;;;;;;14.13;6.87;;;;;;;14.24;53.20;101956.21;1755817;79;21061;-64
2021/10/19 10:48:12;;;;;;;11.75;6.35;;;;;;;14.32;51.34;101975.76;1709192;79;21071;-65
2021/10/19 10:50:40;;;;;;;15.93;6.75;;;;;;;14.33;51.12;101948.30;1732239;80;21136;-64
2021/10/19 10:53:09;;;;;;;12.82;6.95;;;;;;;14.30;50.83;101949.75;1732717;80;22432;-64
2021/10/19 10:55:43;;;;;;;12.47;6.50;;;;;;;14.35;50.07;101957.70;1749580;79;22460;-63
2021/10/19 10:58:10;;;;;;;;;;;;;;;14.29;48.98;101958.33;1747193;79;21071;-64
2021/10/19 11:00:38;;;;;;;15.72;8.30;;;;;;;14.19;48.87;101956.83;1726951;81;20215;-64
2021/10/19 11:03:15;;;;;;;14.40;6.67;;;;;;;14.17;48.78;101948.80;1748729;80;21154;-63
2021/10/19 11:06:00;;;;;;;12.60;5.75;;;;;;;14.21;48.89;101956.80;1746319;80;21032;-64
2021/10/19 11:08:36;;;;;;;12.47;6.28;;;;;;;14.27;49.11;101949.41;1751231;79;21575;-64
2021/10/19 11:11:08;;;;;;;14.93;6.08;;;;;;;14.32;49.13;101950.12;1743011;79;21478;-64
2021/10/19 11:13:51;;;;;;;13.50;6.35;;;;;;;14.33;49.19;101942.45;1743360;80;21094;-63
2021/10/19 11:16:20;;;;;;;12.15;5.75;;;;;;;14.37;48.93;101949.09;1744848;80;21923;-64
2021/10/19 11:18:52;;;;;;;14.25;7.10;;;;;;;14.35;48.65;101946.91;1738592;80;21071;-63
2021/10/19 11:21:19;;;;;;;11.15;6.15;;;;;;;14.32;48.97;101950.58;1744143;79;21403;-57
2021/10/19 11:23:48;;;;;;;13.55;6.60;;;;;;;14.32;49.13;101947.44;1744083;80;21053;-64